createdAt,value
2017-11-15T00:00:47.780Z,13.23
2017-11-15T00:03:14.152Z,12.68
2017-11-15T00:05:40.565Z,13.23
2017-11-15T00:08:14.458Z,12.48
2017-11-15T00:10:40.832Z,12.02
2017-11-15T00:13:07.229Z,12.15
2017-11-15T00:15:33.746Z,12.05
2017-11-15T00:18:00.845Z,11.32
2017-11-15T00:20:27.261Z,13.25
2017-11-15T00:22:53.722Z,11.23
2017-11-15T00:25:20.104Z,9.70
2017-11-15T00:27:46.464Z,10.45
2017-11-15T00:30:13.057Z,9.77
2017-11-15T00:32:40.267Z,9.23
2017-11-15T00:35:06.661Z,8.70
2017-11-15T00:37:33.100Z,8.18
2017-11-15T00:39:59.527Z,8.40
2017-11-15T00:42:26.024Z,9.07
2017-11-15T00:44:52.393Z,9.25
2017-11-15T00:47:18.787Z,9.93
2017-11-15T00:49:45.231Z,10.23
2017-11-15T00:52:12.381Z,9.85
2017-11-15T00:54:39.575Z,10.18
2017-11-15T00:57:05.951Z,10.23
2017-11-15T00:59:32.315Z,9.45
2017-11-15T01:01:58.773Z,11.45
2017-11-15T01:04:25.176Z,11.45
2017-11-15T01:06:51.568Z,10.57
2017-11-15T01:09:17.968Z,9.27
2017-11-15T01:11:44.401Z,8.55
2017-11-15T01:14:10.804Z,9.25
2017-11-15T01:16:37.192Z,9.07
2017-11-15T01:19:03.636Z,10.07
2017-11-15T01:21:30.152Z,9.32
2017-11-15T01:23:56.524Z,8.95
2017-11-15T01:26:23.756Z,9.13
2017-11-15T01:28:50.119Z,9.43
2017-11-15T01:31:16.583Z,10.55
2017-11-15T01:33:42.992Z,8.90
2017-11-15T01:36:09.451Z,7.60
2017-11-15T01:38:35.811Z,8.90
2017-11-15T01:41:02.348Z,8.13
2017-11-15T01:43:28.761Z,8.20
2017-11-15T01:45:55.199Z,8.80
2017-11-15T01:48:21.637Z,8.55
2017-11-15T01:50:48.085Z,9.63
2017-11-15T01:53:14.504Z,7.68
2017-11-15T01:55:40.900Z,8.32
2017-11-15T01:58:07.321Z,7.85
2017-11-15T02:00:45.978Z,7.87
2017-11-15T02:03:12.400Z,7.93
2017-11-15T02:05:38.784Z,7.85
2017-11-15T02:08:05.920Z,8.80
2017-11-15T02:10:32.415Z,8.55
2017-11-15T02:12:58.848Z,6.62
2017-11-15T02:15:25.245Z,8.40
2017-11-15T02:17:52.405Z,9.30
2017-11-15T02:20:18.833Z,8.65
2017-11-15T02:22:46.069Z,10.40
2017-11-15T02:25:13.269Z,10.20
2017-11-15T02:27:39.744Z,8.93
2017-11-15T02:30:06.245Z,10.40
2017-11-15T02:32:32.705Z,10.10
2017-11-15T02:34:59.160Z,9.82
2017-11-15T02:37:26.338Z,8.40
2017-11-15T02:39:52.774Z,8.43
2017-11-15T02:42:19.292Z,10.98
2017-11-15T02:44:45.730Z,8.52
2017-11-15T02:47:12.436Z,9.35
2017-11-15T02:49:38.850Z,9.63
2017-11-15T02:52:05.293Z,8.18
2017-11-15T02:54:31.699Z,9.13
2017-11-15T02:56:58.889Z,9.38
2017-11-15T02:59:25.320Z,7.72
2017-11-15T03:01:54.452Z,9.60
2017-11-15T03:04:20.861Z,9.30
2017-11-15T03:06:47.996Z,9.38
2017-11-15T03:09:14.528Z,11.10
2017-11-15T03:11:41.761Z,9.82
2017-11-15T03:14:08.169Z,8.95
2017-11-15T03:16:34.597Z,9.77
2017-11-15T03:19:00.997Z,9.80
2017-11-15T03:21:28.209Z,9.65
2017-11-15T03:23:54.625Z,8.82
2017-11-15T03:26:21.045Z,8.85
2017-11-15T03:28:47.436Z,9.43
2017-11-15T03:31:14.625Z,9.68
2017-11-15T03:33:41.056Z,8.30
2017-11-15T03:36:07.460Z,8.43
2017-11-15T03:38:34.609Z,8.18
2017-11-15T03:41:01.809Z,9.90
2017-11-15T03:43:28.194Z,9.75
2017-11-15T03:45:55.310Z,9.48
2017-11-15T03:48:21.731Z,10.90
2017-11-15T03:50:48.240Z,10.57
2017-11-15T03:53:14.641Z,8.85
2017-11-15T03:55:41.779Z,8.55
2017-11-15T03:58:08.168Z,7.60
2017-11-15T04:00:34.566Z,8.60
2017-11-15T04:03:00.947Z,8.50
2017-11-15T04:05:27.401Z,8.07
2017-11-15T04:07:53.764Z,8.77
2017-11-15T04:10:20.129Z,8.82
2017-11-15T04:12:46.561Z,9.35
2017-11-15T04:15:12.985Z,8.15
2017-11-15T04:17:39.385Z,9.43
2017-11-15T04:20:06.516Z,8.02
2017-11-15T04:22:33.037Z,8.80
2017-11-15T04:24:59.441Z,7.50
2017-11-15T04:27:25.852Z,9.07
2017-11-15T04:29:52.295Z,8.23
2017-11-15T04:32:18.744Z,8.50
2017-11-15T04:34:45.193Z,8.43
2017-11-15T04:37:11.560Z,8.07
2017-11-15T04:39:38.797Z,7.95
2017-11-15T04:42:05.322Z,8.25
2017-11-15T04:44:31.759Z,8.00
2017-11-15T04:47:20.091Z,8.30
2017-11-15T04:49:46.521Z,8.70
2017-11-15T04:52:12.956Z,8.60
2017-11-15T04:54:39.373Z,7.75
2017-11-15T04:57:05.764Z,9.32
2017-11-15T04:59:32.948Z,8.10
2017-11-15T05:01:59.376Z,8.00
2017-11-15T05:04:25.728Z,8.80
2017-11-15T05:06:52.137Z,8.43
2017-11-15T05:09:18.518Z,8.23
2017-11-15T05:11:45.013Z,6.95
2017-11-15T05:14:11.400Z,7.03
2017-11-15T05:16:38.545Z,8.40
2017-11-15T05:19:05.765Z,7.75
2017-11-15T05:21:32.299Z,8.02
2017-11-15T05:23:58.710Z,8.32
2017-11-15T05:26:25.153Z,8.07
2017-11-15T05:28:51.584Z,7.68
2017-11-15T05:31:18.049Z,7.32
2017-11-15T05:33:44.769Z,7.12
2017-11-15T05:36:11.172Z,7.45
2017-11-15T05:38:37.595Z,7.68
2017-11-15T05:41:04.035Z,8.80
2017-11-15T05:43:30.437Z,8.90
2017-11-15T05:45:56.906Z,8.23
2017-11-15T05:48:23.324Z,9.75
2017-11-15T05:50:50.014Z,9.90
2017-11-15T05:53:16.683Z,8.20
2017-11-15T05:55:44.101Z,10.48
2017-11-15T05:58:11.460Z,9.95
2017-11-15T06:00:37.884Z,9.43
2017-11-15T06:03:04.300Z,9.75
2017-11-15T06:05:30.709Z,9.85
2017-11-15T06:07:57.852Z,8.95
2017-11-15T06:10:25.055Z,10.00
2017-11-15T06:12:51.580Z,9.43
2017-11-15T06:15:18.011Z,10.20
2017-11-15T06:17:55.727Z,9.25
2017-11-15T06:20:22.046Z,9.32
2017-11-15T06:22:48.555Z,9.43
2017-11-15T06:25:15.133Z,8.98
2017-11-15T06:27:41.712Z,10.20
2017-11-15T06:30:07.998Z,10.48
2017-11-15T06:32:34.474Z,10.25
2017-11-15T06:35:00.896Z,9.68
2017-11-15T06:37:27.365Z,10.02
2017-11-15T06:39:53.641Z,10.32
2017-11-15T06:42:20.038Z,9.30
2017-11-15T06:44:46.403Z,11.95
2017-11-15T06:47:12.808Z,9.93
2017-11-15T06:49:39.180Z,11.90
2017-11-15T06:52:05.617Z,11.95
2017-11-15T06:54:32.028Z,13.98
2017-11-15T06:56:58.400Z,18.08
2017-11-15T06:59:24.784Z,20.27
2017-11-15T07:01:51.195Z,22.45
2017-11-15T07:04:17.601Z,21.33
2017-11-15T07:06:44.048Z,20.48
2017-11-15T07:09:10.461Z,18.50
2017-11-15T07:11:36.873Z,17.92
2017-11-15T07:14:04.037Z,16.37
2017-11-15T07:16:31.162Z,16.20
2017-11-15T07:18:57.615Z,12.68
2017-11-15T07:21:24.737Z,16.77
2017-11-15T07:23:51.186Z,14.15
2017-11-15T07:26:18.337Z,16.17
2017-11-15T07:28:44.767Z,14.73
2017-11-15T07:31:11.157Z,16.65
2017-11-15T07:33:37.557Z,15.80
2017-11-15T07:36:04.721Z,14.68
2017-11-15T07:38:31.133Z,13.85
2017-11-15T07:40:57.512Z,15.68
2017-11-15T07:43:23.929Z,14.70
2017-11-15T07:45:50.336Z,14.87
2017-11-15T07:48:16.717Z,15.05
2017-11-15T07:50:43.109Z,15.18
2017-11-15T07:53:09.537Z,13.75
2017-11-15T07:55:35.962Z,12.90
2017-11-15T07:58:02.373Z,13.93
2017-11-15T08:00:29.502Z,13.93
2017-11-15T08:02:55.911Z,14.95
2017-11-15T08:05:22.345Z,15.15
2017-11-15T08:07:48.733Z,16.20
2017-11-15T08:10:15.884Z,15.55
2017-11-15T08:12:43.035Z,13.52
2017-11-15T08:15:10.198Z,14.13
2017-11-15T08:17:36.600Z,14.57
2017-11-15T08:20:03.038Z,13.60
2017-11-15T08:22:29.439Z,15.48
2017-11-15T08:24:55.833Z,15.45
2017-11-15T08:27:22.214Z,13.98
2017-11-15T08:29:48.597Z,14.15
2017-11-15T08:32:15.026Z,15.68
2017-11-15T08:34:41.408Z,14.55
2017-11-15T08:37:07.768Z,16.55
2017-11-15T08:39:34.941Z,13.50
2017-11-15T08:42:01.378Z,13.85
2017-11-15T08:44:27.798Z,13.88
2017-11-15T08:46:54.253Z,13.23
2017-11-15T08:49:20.670Z,15.52
2017-11-15T08:51:47.104Z,13.68
2017-11-15T08:54:13.509Z,14.13
2017-11-15T08:56:40.691Z,12.88
2017-11-15T08:59:07.132Z,14.52
2017-11-15T09:01:33.543Z,14.48
2017-11-15T09:04:00.697Z,14.15
2017-11-15T09:06:27.117Z,14.65
2017-11-15T09:08:54.276Z,14.27
2017-11-15T09:11:21.430Z,15.98
2017-11-15T09:13:47.801Z,16.55
2017-11-15T09:16:14.227Z,14.15
2017-11-15T09:18:40.612Z,14.43
2017-11-15T09:21:07.769Z,12.73
2017-11-15T09:23:34.885Z,14.63
2017-11-15T09:26:01.292Z,14.68
2017-11-15T09:28:29.569Z,14.80
2017-11-15T09:30:56.901Z,12.77
2017-11-15T09:33:23.280Z,14.82
2017-11-15T09:35:49.652Z,13.82
2017-11-15T09:38:16.098Z,13.65
2017-11-15T09:40:42.509Z,15.20
2017-11-15T09:43:09.625Z,11.93
2017-11-15T09:45:36.021Z,13.43
2017-11-15T09:48:02.405Z,15.95
2017-11-15T09:50:29.620Z,13.98
2017-11-15T09:52:56.054Z,14.90
2017-11-15T09:55:22.446Z,16.83
2017-11-15T09:57:48.884Z,15.57
2017-11-15T10:00:15.275Z,16.10
2017-11-15T10:02:41.681Z,15.90
2017-11-15T10:05:08.094Z,17.20
2017-11-15T10:07:34.473Z,16.15
2017-11-15T10:10:00.868Z,17.15
2017-11-15T10:12:27.273Z,18.50
2017-11-15T10:14:53.653Z,16.02
2017-11-15T10:17:20.024Z,16.95
2017-11-15T10:19:47.184Z,19.42
2017-11-15T10:22:13.588Z,17.87
2017-11-15T10:24:39.977Z,18.62
2017-11-15T10:27:06.402Z,19.33
2017-11-15T10:29:32.767Z,18.52
2017-11-15T10:31:59.192Z,16.85
2017-11-15T10:34:25.597Z,18.45
2017-11-15T10:36:51.981Z,18.35
2017-11-15T10:39:18.397Z,17.65
2017-11-15T10:41:45.531Z,16.35
2017-11-15T10:44:11.922Z,18.12
2017-11-15T10:46:38.326Z,19.58
2017-11-15T10:49:05.474Z,19.45
2017-11-15T10:51:31.907Z,17.92
2017-11-15T10:53:58.297Z,17.50
2017-11-15T10:56:24.724Z,18.33
2017-11-15T10:58:51.203Z,18.42
2017-11-15T11:01:17.650Z,16.80
2017-11-15T11:03:44.861Z,16.67
2017-11-15T11:06:11.260Z,17.47
2017-11-15T11:08:37.701Z,15.17
2017-11-15T11:11:04.133Z,16.33
2017-11-15T11:13:30.622Z,15.27
2017-11-15T11:15:57.018Z,14.10
2017-11-15T11:18:23.424Z,14.30
2017-11-15T11:20:49.877Z,12.50
2017-11-15T11:23:16.285Z,11.93
2017-11-15T11:25:43.433Z,13.00
2017-11-15T11:28:09.861Z,11.10
2017-11-15T11:30:37.025Z,9.50
2017-11-15T11:33:03.416Z,7.90
2017-11-15T11:35:29.826Z,8.87
2017-11-15T11:37:56.235Z,7.73
2017-11-15T11:40:22.636Z,9.10
2017-11-15T11:42:49.774Z,7.83
2017-11-15T11:45:16.947Z,8.45
2017-11-15T11:47:43.342Z,8.70
2017-11-15T11:50:09.721Z,7.67
2017-11-15T11:52:36.165Z,8.33
2017-11-15T11:55:02.591Z,8.87
2017-11-15T11:57:29.031Z,10.00
2017-11-15T11:59:55.436Z,11.83
2017-11-15T12:02:22.552Z,9.87
2017-11-15T12:04:48.942Z,11.17
2017-11-15T12:07:15.353Z,11.40
2017-11-15T12:09:41.781Z,10.00
2017-11-15T12:12:08.960Z,11.20
2017-11-15T12:14:35.417Z,10.77
2017-11-15T12:17:01.798Z,10.98
2017-11-15T12:19:28.967Z,11.55
2017-11-15T12:21:55.500Z,9.70
2017-11-15T12:24:21.913Z,10.43
2017-11-15T12:26:48.342Z,9.38
2017-11-15T12:29:15.512Z,10.55
2017-11-15T12:31:41.932Z,9.35
2017-11-15T12:34:09.223Z,9.38
2017-11-15T12:36:35.595Z,8.65
2017-11-15T12:39:02.786Z,9.32
2017-11-15T12:41:29.277Z,7.78
2017-11-15T12:43:55.759Z,9.88
2017-11-15T12:46:22.232Z,7.68
2017-11-15T12:48:48.661Z,8.38
2017-11-15T12:51:15.149Z,7.90
2017-11-15T12:53:41.540Z,7.43
2017-11-15T12:56:07.984Z,7.43
2017-11-15T12:58:34.410Z,7.63
2017-11-15T13:01:00.806Z,7.30
2017-11-15T13:03:27.213Z,7.60
2017-11-15T13:05:53.629Z,7.10
2017-11-15T13:08:20.737Z,8.20
2017-11-15T13:10:47.166Z,7.63
2017-11-15T13:13:13.602Z,9.20
2017-11-15T13:15:40.066Z,9.00
2017-11-15T13:18:07.297Z,8.52
2017-11-15T13:20:33.691Z,8.48
2017-11-15T13:23:00.147Z,8.48
2017-11-15T13:25:27.296Z,7.62
2017-11-15T13:27:53.727Z,8.32
2017-11-15T13:30:20.149Z,7.78
2017-11-15T13:32:46.540Z,6.25
2017-11-15T13:35:13.696Z,7.00
2017-11-15T13:37:40.817Z,7.87
2017-11-15T13:40:07.228Z,7.62
2017-11-15T13:42:34.398Z,7.87
2017-11-15T13:45:00.832Z,7.80
2017-11-15T13:47:27.229Z,7.70
2017-11-15T13:49:53.605Z,7.95
2017-11-15T13:52:20.034Z,7.45
2017-11-15T13:54:46.456Z,6.85
2017-11-15T13:57:13.597Z,7.57
2017-11-15T13:59:39.993Z,6.20
2017-11-15T14:02:06.390Z,7.97
2017-11-15T14:04:33.540Z,5.60
2017-11-15T14:06:59.920Z,6.30
2017-11-15T14:09:26.367Z,5.43
2017-11-15T14:11:52.813Z,7.78
2017-11-15T14:14:19.982Z,7.78
2017-11-15T14:16:46.384Z,7.43
2017-11-15T14:19:12.772Z,7.47
2017-11-15T14:21:39.913Z,7.70
2017-11-15T14:24:07.138Z,7.50
2017-11-15T14:26:33.542Z,8.60
2017-11-15T14:28:59.981Z,8.20
2017-11-15T14:31:26.405Z,7.32
2017-11-15T14:33:52.837Z,6.65
2017-11-15T14:36:19.240Z,7.32
2017-11-15T14:38:45.625Z,7.12
2017-11-15T14:41:12.062Z,8.50
2017-11-15T14:43:38.473Z,7.95
2017-11-15T14:46:04.862Z,7.68
2017-11-15T14:48:32.021Z,7.05
2017-11-15T14:50:59.169Z,6.65
2017-11-15T14:53:25.588Z,7.55
2017-11-15T14:55:52.733Z,9.57
2017-11-15T14:58:19.897Z,10.77
2017-11-15T15:00:47.021Z,10.90
2017-11-15T15:03:13.522Z,10.48
2017-11-15T15:05:39.902Z,9.85
2017-11-15T15:08:06.276Z,9.30
2017-11-15T15:10:32.720Z,10.88
2017-11-15T15:12:59.120Z,10.77
2017-11-15T15:15:26.274Z,15.07
2017-11-15T15:17:52.685Z,28.05
2017-11-15T15:20:19.844Z,27.27
2017-11-15T15:22:46.380Z,26.40
2017-11-15T15:25:13.484Z,22.60
2017-11-15T15:27:39.873Z,20.55
2017-11-15T15:30:06.292Z,20.02
2017-11-15T15:32:32.757Z,17.87
2017-11-15T15:34:59.129Z,15.98
2017-11-15T15:37:25.544Z,13.25
2017-11-15T15:39:51.920Z,13.00
2017-11-15T15:42:19.085Z,13.10
2017-11-15T15:44:45.525Z,14.38
2017-11-15T15:47:11.917Z,16.62
2017-11-15T15:49:39.064Z,14.23
2017-11-15T15:52:05.468Z,15.30
2017-11-15T15:54:31.885Z,14.75
2017-11-15T15:56:58.286Z,14.90
2017-11-15T15:59:26.236Z,14.00
2017-11-15T16:01:52.662Z,13.07
2017-11-15T16:04:19.201Z,12.48
2017-11-15T16:06:45.602Z,13.77
2017-11-15T16:09:11.988Z,14.68
2017-11-15T16:11:39.119Z,13.57
2017-11-15T16:14:05.526Z,13.62
2017-11-15T16:16:32.232Z,13.00
2017-11-15T16:18:58.681Z,12.05
2017-11-15T16:21:25.093Z,12.52
2017-11-15T16:23:51.503Z,11.43
2017-11-15T16:26:18.668Z,12.60
2017-11-15T16:28:45.094Z,12.55
2017-11-15T16:31:12.220Z,16.87
2017-11-15T16:33:38.709Z,15.40
2017-11-15T16:36:05.086Z,18.60
2017-11-15T16:38:31.467Z,17.37
2017-11-15T16:40:57.885Z,15.80
2017-11-15T16:43:24.276Z,16.62
2017-11-15T16:45:50.680Z,17.12
2017-11-15T16:48:17.045Z,16.87
2017-11-15T16:50:43.423Z,16.50
2017-11-15T16:53:09.860Z,15.13
2017-11-15T16:55:36.533Z,16.33
2017-11-15T16:58:03.033Z,14.40
2017-11-15T17:00:29.465Z,15.45
2017-11-15T17:02:55.864Z,14.43
2017-11-15T17:05:23.009Z,15.10
2017-11-15T17:07:50.173Z,16.48
2017-11-15T17:10:16.648Z,15.57
2017-11-15T17:12:43.025Z,15.10
2017-11-15T17:15:10.227Z,15.35
2017-11-15T17:17:36.617Z,15.77
2017-11-15T17:20:03.744Z,19.80
2017-11-15T17:22:30.908Z,21.40
2017-11-15T17:24:58.044Z,19.60
2017-11-15T17:27:24.448Z,18.05
2017-11-15T17:29:50.859Z,17.45
2017-11-15T17:32:18.120Z,16.42
2017-11-15T17:34:44.513Z,16.12
2017-11-15T17:37:11.677Z,16.77
2017-11-15T17:39:38.828Z,14.30
2017-11-15T17:42:05.217Z,15.07
2017-11-15T17:44:31.616Z,16.30
2017-11-15T17:46:58.078Z,17.42
2017-11-15T17:49:24.536Z,16.73
2017-11-15T17:51:51.692Z,16.12
2017-11-15T17:54:18.796Z,16.67
2017-11-15T17:56:45.215Z,15.65
2017-11-15T17:59:11.608Z,17.50
2017-11-15T18:01:38.779Z,16.60
2017-11-15T18:04:05.211Z,17.12
2017-11-15T18:06:31.623Z,15.27
2017-11-15T18:08:58.740Z,16.35
2017-11-15T18:11:25.326Z,17.98
2017-11-15T18:13:51.913Z,17.45
2017-11-15T18:16:19.101Z,16.12
2017-11-15T18:18:46.248Z,15.70
2017-11-15T18:21:13.393Z,14.63
2017-11-15T18:23:41.154Z,14.85
2017-11-15T18:26:08.265Z,16.50
2017-11-15T18:28:34.677Z,14.23
2017-11-15T18:31:01.375Z,14.43
2017-11-15T18:33:28.005Z,15.43
2017-11-15T18:35:54.917Z,12.75
2017-11-15T18:38:21.484Z,13.20
2017-11-15T18:40:48.030Z,15.10
2017-11-15T18:43:14.632Z,17.58
2017-11-15T18:45:41.918Z,17.10
2017-11-15T18:48:10.012Z,16.35
2017-11-15T18:50:36.509Z,17.42
2017-11-15T18:53:03.668Z,20.17
2017-11-15T18:55:30.096Z,19.58
2017-11-15T18:57:57.250Z,19.92
2017-11-15T19:00:23.694Z,20.65
2017-11-15T19:02:50.844Z,17.95
2017-11-15T19:05:17.984Z,15.85
2017-11-15T19:07:44.360Z,14.55
2017-11-15T19:10:10.791Z,13.88
2017-11-15T19:12:37.224Z,16.62
2017-11-15T19:15:03.673Z,15.60
2017-11-15T19:17:30.109Z,16.52
2017-11-15T19:19:56.472Z,14.95
2017-11-15T19:22:22.855Z,14.80
2017-11-15T19:24:49.241Z,17.50
2017-11-15T19:27:15.630Z,13.95
2017-11-15T19:29:42.031Z,14.32
2017-11-15T19:32:09.197Z,19.58
2017-11-15T19:34:35.631Z,17.08
2017-11-15T19:37:02.003Z,15.73
2017-11-15T19:39:28.365Z,15.43
2017-11-15T19:41:55.512Z,14.30
2017-11-15T19:44:23.664Z,13.80
2017-11-15T19:46:50.100Z,13.48
2017-11-15T19:49:17.298Z,13.80
2017-11-15T19:51:43.676Z,14.20
2017-11-15T19:54:10.076Z,13.48
2017-11-15T19:56:36.477Z,13.05
2017-11-15T19:59:03.634Z,15.93
2017-11-15T20:01:30.033Z,13.27
2017-11-15T20:03:56.428Z,16.05
2017-11-15T20:06:22.861Z,19.75
2017-11-15T20:08:49.233Z,20.08
2017-11-15T20:11:15.641Z,15.80
2017-11-15T20:13:42.083Z,15.43
2017-11-15T20:16:08.456Z,15.68
2017-11-15T20:18:35.584Z,15.25
2017-11-15T20:21:01.953Z,17.85
2017-11-15T20:23:28.350Z,17.02
2017-11-15T20:25:54.709Z,17.33
2017-11-15T20:28:21.121Z,19.95
2017-11-15T20:30:48.237Z,18.00
2017-11-15T20:33:14.641Z,18.80
2017-11-15T20:35:41.066Z,20.70
2017-11-15T20:38:07.449Z,21.17
2017-11-15T20:40:33.861Z,25.92
2017-11-15T20:43:00.261Z,24.23
2017-11-15T20:45:26.621Z,22.08
2017-11-15T20:47:53.041Z,22.30
2017-11-15T20:50:19.417Z,25.15
2017-11-15T20:52:45.816Z,26.00
2017-11-15T20:55:12.195Z,22.95
2017-11-15T20:57:39.349Z,22.42
2017-11-15T21:00:06.460Z,23.83
2017-11-15T21:02:32.879Z,22.60
2017-11-15T21:04:59.286Z,25.62
2017-11-15T21:07:25.660Z,24.77
2017-11-15T21:09:52.128Z,24.67
2017-11-15T21:12:19.240Z,25.05
2017-11-15T21:14:45.642Z,21.23
2017-11-15T21:17:12.056Z,22.20
2017-11-15T21:19:38.469Z,22.27
2017-11-15T21:22:05.779Z,21.60
2017-11-15T21:24:32.307Z,20.08
2017-11-15T21:27:00.324Z,19.45
2017-11-15T21:29:26.724Z,21.17
2017-11-15T21:31:53.142Z,20.42
2017-11-15T21:34:20.326Z,19.17
2017-11-15T21:36:47.633Z,16.17
2017-11-15T21:39:14.046Z,15.90
2017-11-15T21:41:40.465Z,17.45
2017-11-15T21:44:07.619Z,15.45
2017-11-15T21:46:34.588Z,13.55
2017-11-15T21:49:01.248Z,16.10
2017-11-15T21:51:27.694Z,14.87
2017-11-15T21:53:54.108Z,14.40
2017-11-15T21:56:20.492Z,15.45
2017-11-15T21:58:48.017Z,12.93
2017-11-15T22:01:15.341Z,12.98
2017-11-15T22:03:41.772Z,13.90
2017-11-15T22:06:08.185Z,18.45
2017-11-15T22:08:34.580Z,19.08
2017-11-15T22:11:01.013Z,18.98
2017-11-15T22:13:27.400Z,19.05
2017-11-15T22:15:53.826Z,20.40
2017-11-15T22:18:20.213Z,21.00
2017-11-15T22:20:46.572Z,18.52
2017-11-15T22:23:13.015Z,20.17
2017-11-15T22:25:40.155Z,17.05
2017-11-15T22:28:07.287Z,16.67
2017-11-15T22:30:33.642Z,16.58
2017-11-15T22:33:00.781Z,16.48
2017-11-15T22:35:27.914Z,16.85
2017-11-15T22:37:54.303Z,15.85
2017-11-15T22:40:20.715Z,18.95
2017-11-15T22:42:47.117Z,15.45
2017-11-15T22:45:13.536Z,17.02
2017-11-15T22:47:39.909Z,17.05
2017-11-15T22:50:06.304Z,18.50
2017-11-15T22:52:32.703Z,18.37
2017-11-15T22:54:59.067Z,18.52
2017-11-15T22:57:25.543Z,18.02
2017-11-15T22:59:51.928Z,20.37
2017-11-15T23:02:18.341Z,18.27
2017-11-15T23:04:44.721Z,20.15
2017-11-15T23:07:11.813Z,19.23
2017-11-15T23:09:38.218Z,18.98
2017-11-15T23:12:04.612Z,20.80
2017-11-15T23:14:30.980Z,19.05
2017-11-15T23:16:57.419Z,18.30
2017-11-15T23:19:23.810Z,18.42
2017-11-15T23:21:50.236Z,18.52
2017-11-15T23:24:16.679Z,18.50
2017-11-15T23:26:43.798Z,18.90
2017-11-15T23:29:10.922Z,19.27
2017-11-15T23:31:37.327Z,17.87
2017-11-15T23:34:04.437Z,19.67
2017-11-15T23:36:30.824Z,18.25
2017-11-15T23:38:57.231Z,18.48
2017-11-15T23:41:24.334Z,18.05
2017-11-15T23:43:50.688Z,19.75
2017-11-15T23:46:17.088Z,20.17
2017-11-15T23:48:43.464Z,19.50
2017-11-15T23:51:09.903Z,18.67
2017-11-15T23:53:36.275Z,19.70
2017-11-15T23:56:02.674Z,21.73
2017-11-15T23:58:29.819Z,19.20
